Terminal Aerodrome Forecast
Issued by NWS La Crosse, WI

Home | Current Version | Previous Version | Text Only | Print | Product List | Glossary On
Versions: 1 2 3 4 5 6 7 8 9 10 11 12 13 14 15 16 17 18 19 20 21 22 23 24
000
FTUS43 KARX 230900 AAA
TAFRST
TAF AMD
KRST 230900Z 2309/2406 28009KT 2SM -DZ BR OVC003
     FM231100 30007KT 1SM BR VV002
      TEMPO 2312/2315 1/2SM FG VV002
     FM231700 29006KT 2SM BR OVC006
     FM232100 29004KT 5SM BR BKN010=

USA.gov is the U.S. government's official web portal to all federal, state and local government web resources and services.